createdAt,value
2022-12-31T00:02:17.794Z,15.59
2022-12-31T00:04:48.840Z,15.42
2022-12-31T00:07:22.247Z,15.42
2022-12-31T00:09:51.377Z,15.53
2022-12-31T00:12:25.684Z,15.54
2022-12-31T00:14:56.497Z,15.49
2022-12-31T00:17:29.774Z,15.46
2022-12-31T00:20:03.817Z,15.34
2022-12-31T00:22:46.291Z,15.36
2022-12-31T00:25:21.185Z,15.31
2022-12-31T00:27:57.593Z,15.43
2022-12-31T00:30:31.634Z,15.36
2022-12-31T00:33:06.797Z,15.17
2022-12-31T00:35:40.474Z,15.29
2022-12-31T00:38:25.530Z,15.06
2022-12-31T00:41:26.990Z,15.26
2022-12-31T00:44:02.750Z,15.18
2022-12-31T00:49:10.327Z,15.13
2022-12-31T00:51:50.871Z,15.10
2022-12-31T00:54:45.717Z,14.95
2022-12-31T00:57:22.612Z,15.06
2022-12-31T00:59:54.578Z,14.93
2022-12-31T01:02:38.251Z,14.70
2022-12-31T01:05:08.529Z,14.82
2022-12-31T01:07:39.688Z,14.92
2022-12-31T01:10:37.906Z,14.72
2022-12-31T01:13:12.401Z,14.93
2022-12-31T01:15:46.406Z,14.93
2022-12-31T01:18:16.523Z,14.94
2022-12-31T01:20:45.671Z,14.89
2022-12-31T01:23:14.907Z,14.96
2022-12-31T01:26:00.969Z,14.98
2022-12-31T01:28:33.058Z,14.92
2022-12-31T01:31:06.428Z,14.92
2022-12-31T01:33:36.031Z,14.85
2022-12-31T01:36:14.149Z,14.90
2022-12-31T01:38:48.944Z,14.90
2022-12-31T01:41:24.609Z,14.76
2022-12-31T01:44:18.379Z,14.80
2022-12-31T01:46:55.375Z,14.82
2022-12-31T01:49:33.925Z,15.00
2022-12-31T01:52:13.325Z,14.82
2022-12-31T01:54:46.922Z,14.94
2022-12-31T01:57:20.443Z,15.06
2022-12-31T01:59:51.109Z,15.07
2022-12-31T02:02:23.894Z,15.03
2022-12-31T02:04:53.729Z,14.86
2022-12-31T02:07:27.122Z,14.79
2022-12-31T02:09:55.924Z,15.02
2022-12-31T02:12:27.070Z,14.95
2022-12-31T02:15:10.199Z,15.00
2022-12-31T05:14:20.114Z,17.11
2022-12-31T05:16:51.111Z,17.14
2022-12-31T05:19:28.668Z,16.89
2022-12-31T05:22:22.738Z,17.10
2022-12-31T05:24:55.150Z,17.13
2022-12-31T05:27:23.904Z,17.09
2022-12-31T05:29:54.099Z,17.18
2022-12-31T05:32:23.471Z,17.14
2022-12-31T05:34:53.839Z,17.03
2022-12-31T05:37:22.901Z,17.31
2022-12-31T05:39:53.632Z,17.13
2022-12-31T05:42:22.386Z,17.21
2022-12-31T05:47:44.953Z,17.19
2022-12-31T05:50:25.615Z,17.30
2022-12-31T05:53:00.301Z,17.16
2022-12-31T05:55:30.478Z,17.21
2022-12-31T05:58:05.706Z,17.19
2022-12-31T06:00:39.463Z,17.31
2022-12-31T06:03:14.783Z,17.34
2022-12-31T06:06:05.353Z,17.28
2022-12-31T06:08:43.054Z,17.15
2022-12-31T06:11:21.755Z,17.18
2022-12-31T06:14:02.922Z,17.22
2022-12-31T06:16:36.380Z,17.26
2022-12-31T06:19:06.456Z,17.12
2022-12-31T06:21:42.566Z,17.21
2022-12-31T06:24:23.170Z,17.06
2022-12-31T06:27:00.149Z,17.19
2022-12-31T06:29:31.587Z,16.97
2022-12-31T06:32:02.050Z,16.91
2022-12-31T06:34:33.160Z,17.06
2022-12-31T06:37:07.680Z,17.13
2022-12-31T06:39:46.293Z,17.31
2022-12-31T06:42:25.116Z,17.11
2022-12-31T06:44:56.466Z,17.17
2022-12-31T06:47:34.158Z,17.27
2022-12-31T06:50:08.621Z,17.34
2022-12-31T06:52:38.455Z,17.32
2022-12-31T06:55:14.047Z,17.37
2022-12-31T06:57:45.059Z,17.43
2022-12-31T07:00:21.828Z,17.45
2022-12-31T07:03:03.520Z,17.41
2022-12-31T07:05:43.566Z,17.42
2022-12-31T07:08:26.036Z,17.41
2022-12-31T07:11:00.815Z,17.26
2022-12-31T07:13:50.813Z,17.35
2022-12-31T07:16:27.211Z,17.34
2022-12-31T07:19:21.373Z,17.27
2022-12-31T07:21:50.283Z,17.24
2022-12-31T07:24:19.541Z,17.12
2022-12-31T07:27:01.379Z,17.29
2022-12-31T07:29:40.437Z,17.25
2022-12-31T07:32:16.447Z,17.12
2022-12-31T07:35:00.245Z,17.20
2022-12-31T07:37:37.704Z,17.35
2022-12-31T07:40:29.340Z,17.37
2022-12-31T07:43:17.308Z,17.34
2022-12-31T07:45:50.772Z,17.32
2022-12-31T07:48:35.144Z,17.40
2022-12-31T07:51:17.082Z,17.34
2022-12-31T07:53:50.369Z,17.31
2022-12-31T07:56:23.606Z,17.37
2022-12-31T07:59:06.235Z,17.31
2022-12-31T08:01:53.647Z,17.45
2022-12-31T08:04:32.809Z,17.31
2022-12-31T08:07:17.675Z,17.42
2022-12-31T08:10:18.097Z,17.41
2022-12-31T08:12:57.048Z,17.36
2022-12-31T08:15:35.263Z,17.33
2022-12-31T08:18:08.357Z,17.42
2022-12-31T08:20:41.177Z,17.22
2022-12-31T08:23:24.086Z,17.37
2022-12-31T08:26:10.336Z,17.32
2022-12-31T08:28:57.532Z,17.40
2022-12-31T08:31:37.182Z,17.33
2022-12-31T08:34:20.081Z,17.30
2022-12-31T08:37:04.786Z,17.29
2022-12-31T08:40:02.430Z,17.35
2022-12-31T08:42:41.785Z,17.36
2022-12-31T08:45:15.362Z,17.36
2022-12-31T08:47:56.432Z,17.28
2022-12-31T08:50:30.176Z,17.36
2022-12-31T08:53:02.827Z,17.13
2022-12-31T08:55:37.181Z,17.18
2022-12-31T08:58:22.284Z,17.35
2022-12-31T09:00:54.131Z,17.34
2022-12-31T09:03:36.303Z,17.38
2022-12-31T09:06:11.085Z,17.35
2022-12-31T09:09:04.965Z,17.44
2022-12-31T09:11:51.330Z,17.41
2022-12-31T09:14:27.289Z,17.42
2022-12-31T09:17:02.925Z,17.36
2022-12-31T09:19:36.314Z,17.45
2022-12-31T09:22:08.468Z,17.29
2022-12-31T09:25:00.742Z,17.41
2022-12-31T09:27:39.885Z,17.28
2022-12-31T09:30:16.021Z,17.41
2022-12-31T09:33:01.339Z,17.39
2022-12-31T09:35:56.829Z,17.27
2022-12-31T09:38:38.154Z,17.48
2022-12-31T09:41:23.566Z,17.46
2022-12-31T09:44:32.611Z,17.51
2022-12-31T09:48:00.807Z,17.35
2022-12-31T09:51:16.319Z,17.44
2022-12-31T09:54:59.806Z,17.31
2022-12-31T09:57:48.131Z,17.46
2022-12-31T10:00:36.386Z,17.43
2022-12-31T10:03:56.061Z,17.52
2022-12-31T10:06:50.894Z,17.51
2022-12-31T10:10:06.732Z,17.54
2022-12-31T10:13:26.268Z,17.54
2022-12-31T10:16:32.681Z,17.41
2022-12-31T10:20:12.819Z,17.50
2022-12-31T10:23:38.223Z,17.44
2022-12-31T10:26:42.091Z,17.47
2022-12-31T10:29:31.203Z,17.46
2022-12-31T10:32:43.319Z,17.47
2022-12-31T10:35:59.243Z,17.39
2022-12-31T10:39:16.441Z,17.52
2022-12-31T10:42:21.511Z,17.44
2022-12-31T10:45:37.425Z,17.52
2022-12-31T10:48:27.076Z,17.44
2022-12-31T10:51:52.786Z,17.41
2022-12-31T10:55:03.840Z,17.30
2022-12-31T10:58:25.955Z,17.47
2022-12-31T11:01:04.044Z,17.34
2022-12-31T11:04:14.698Z,17.40
2022-12-31T11:07:11.402Z,17.46
2022-12-31T11:10:24.551Z,17.45
2022-12-31T11:13:14.332Z,17.32
2022-12-31T11:16:08.731Z,17.26
2022-12-31T11:18:51.357Z,17.43
2022-12-31T11:22:06.912Z,17.37
2022-12-31T11:27:49.339Z,17.36
2022-12-31T11:30:43.486Z,17.40
2022-12-31T11:33:28.757Z,17.38
2022-12-31T11:36:20.267Z,17.30
2022-12-31T11:39:10.616Z,17.21
2022-12-31T11:41:44.147Z,17.13
2022-12-31T11:44:16.601Z,17.05
2022-12-31T11:46:54.128Z,16.88
2022-12-31T11:49:53.770Z,16.95
2022-12-31T11:52:32.204Z,16.92
2022-12-31T11:55:08.639Z,16.70
2022-12-31T11:57:39.808Z,16.84
2022-12-31T12:00:15.150Z,16.68
2022-12-31T12:02:52.285Z,16.63
2022-12-31T12:05:21.574Z,16.74
2022-12-31T12:10:36.864Z,16.73
2022-12-31T12:13:31.497Z,16.67
2022-12-31T12:16:03.096Z,16.73
2022-12-31T12:18:51.635Z,16.51
2022-12-31T12:21:25.925Z,16.65
2022-12-31T12:23:57.486Z,16.46
2022-12-31T12:26:32.155Z,16.46
2022-12-31T12:29:05.252Z,16.40
2022-12-31T12:31:38.278Z,16.38
2022-12-31T12:34:08.446Z,16.42
2022-12-31T12:36:37.514Z,16.39
2022-12-31T12:39:08.049Z,16.49
2022-12-31T12:41:38.729Z,16.39
2022-12-31T12:44:09.453Z,16.38
2022-12-31T12:46:48.241Z,16.44
2022-12-31T12:49:29.724Z,16.40
2022-12-31T12:52:12.127Z,16.23
2022-12-31T12:54:52.635Z,16.19
2022-12-31T12:57:22.925Z,16.31
2022-12-31T13:00:16.161Z,16.32
2022-12-31T13:03:13.838Z,16.37
2022-12-31T13:05:50.657Z,16.34
2022-12-31T13:08:29.758Z,16.34
2022-12-31T13:11:05.255Z,16.22
2022-12-31T13:13:39.050Z,16.05
2022-12-31T13:16:10.737Z,16.22
2022-12-31T13:18:47.676Z,16.15
2022-12-31T13:21:30.566Z,16.27
2022-12-31T13:24:01.772Z,16.19
2022-12-31T13:26:33.364Z,16.26
2022-12-31T13:29:01.953Z,16.34
2022-12-31T13:31:40.722Z,16.18
2022-12-31T13:34:13.859Z,16.33
2022-12-31T13:36:44.566Z,16.31
2022-12-31T13:39:15.929Z,16.15
2022-12-31T13:41:47.892Z,16.24
2022-12-31T13:44:18.358Z,16.34
2022-12-31T13:46:53.417Z,16.35
2022-12-31T13:49:24.719Z,16.43
2022-12-31T13:51:56.410Z,16.23
2022-12-31T13:54:39.497Z,16.45
2022-12-31T13:57:16.073Z,16.39
2022-12-31T13:59:47.615Z,16.35
2022-12-31T14:02:27.471Z,16.26
2022-12-31T14:04:58.675Z,16.12
2022-12-31T14:07:37.595Z,16.18
2022-12-31T14:10:19.373Z,15.97
2022-12-31T14:12:59.413Z,16.09
2022-12-31T14:15:33.346Z,16.04
2022-12-31T14:18:12.118Z,15.81
2022-12-31T14:20:47.455Z,15.84
2022-12-31T14:23:26.186Z,15.97
2022-12-31T14:26:00.840Z,15.76
2022-12-31T14:29:00.021Z,15.73
2022-12-31T14:31:32.251Z,15.75
2022-12-31T14:34:02.789Z,15.72
2022-12-31T14:36:57.624Z,15.79
2022-12-31T14:39:48.827Z,15.74
2022-12-31T14:42:24.275Z,15.83
2022-12-31T14:45:01.072Z,15.77
2022-12-31T14:47:40.321Z,15.86
2022-12-31T14:50:19.574Z,15.69
2022-12-31T14:52:55.918Z,15.82
2022-12-31T14:55:31.061Z,15.84
2022-12-31T14:58:31.655Z,15.83
2022-12-31T15:01:22.753Z,15.82
2022-12-31T15:03:51.684Z,15.77
2022-12-31T15:06:56.198Z,15.70
2022-12-31T15:09:48.398Z,15.56
2022-12-31T15:12:46.909Z,15.67
2022-12-31T15:15:52.254Z,15.49
2022-12-31T15:18:38.755Z,15.60
2022-12-31T15:21:37.709Z,15.59
2022-12-31T15:24:14.741Z,15.53
2022-12-31T15:26:48.925Z,15.54
2022-12-31T15:29:26.545Z,15.38
2022-12-31T15:31:58.987Z,15.49
2022-12-31T15:34:29.639Z,15.36
2022-12-31T15:36:59.002Z,15.30
2022-12-31T15:39:38.148Z,15.44
2022-12-31T15:42:38.168Z,15.26
2022-12-31T15:45:12.877Z,15.45
2022-12-31T15:47:41.833Z,15.33
2022-12-31T15:50:15.703Z,15.39
2022-12-31T15:52:44.895Z,15.49
2022-12-31T15:55:21.706Z,15.40
2022-12-31T15:57:49.790Z,15.50
2022-12-31T16:00:20.607Z,15.54
2022-12-31T16:02:49.242Z,15.47
2022-12-31T16:05:21.629Z,15.56
2022-12-31T16:07:50.145Z,15.64
2022-12-31T16:10:24.738Z,15.66
2022-12-31T16:12:54.268Z,15.63
2022-12-31T16:15:25.300Z,15.61
2022-12-31T16:18:01.482Z,15.53
2022-12-31T16:20:31.483Z,15.55
2022-12-31T16:23:02.444Z,15.44
2022-12-31T16:25:33.036Z,15.42
2022-12-31T16:28:02.591Z,15.54
2022-12-31T16:30:33.157Z,15.50
2022-12-31T16:33:06.857Z,15.63
2022-12-31T16:35:38.151Z,15.45
2022-12-31T16:38:14.972Z,15.51
2022-12-31T16:40:43.827Z,15.49
2022-12-31T16:43:27.490Z,15.62
2022-12-31T16:45:59.310Z,15.53
2022-12-31T16:48:27.955Z,15.52
2022-12-31T16:50:56.540Z,15.52
2022-12-31T16:53:26.484Z,15.44
2022-12-31T16:55:58.249Z,15.41
2022-12-31T16:58:28.441Z,15.42
2022-12-31T17:01:01.708Z,15.47
2022-12-31T17:03:30.082Z,15.46
2022-12-31T17:06:04.246Z,15.31
2022-12-31T17:08:40.588Z,15.35
2022-12-31T17:11:23.435Z,15.40
2022-12-31T17:13:56.822Z,15.26
2022-12-31T17:16:26.754Z,15.33
2022-12-31T17:18:55.433Z,15.21
2022-12-31T17:21:24.847Z,15.30
2022-12-31T17:23:55.219Z,15.24
2022-12-31T17:26:29.498Z,15.36
2022-12-31T17:28:58.414Z,15.32
2022-12-31T17:31:32.408Z,15.48
2022-12-31T17:34:35.127Z,15.28
2022-12-31T17:37:05.613Z,15.33
2022-12-31T17:39:51.452Z,15.32
2022-12-31T17:42:30.576Z,15.47
2022-12-31T17:45:01.636Z,15.23
2022-12-31T17:47:38.525Z,15.37
2022-12-31T17:50:10.678Z,15.33
2022-12-31T17:52:39.571Z,15.30
2022-12-31T17:55:10.702Z,15.35
2022-12-31T17:57:40.264Z,15.47
2022-12-31T18:00:11.888Z,15.47
2022-12-31T18:02:45.262Z,15.53
2022-12-31T18:05:17.852Z,15.40
2022-12-31T18:07:46.191Z,15.47
2022-12-31T18:10:15.383Z,15.53
2022-12-31T18:12:50.721Z,15.32
2022-12-31T18:15:28.029Z,15.38
2022-12-31T18:18:00.779Z,15.33
2022-12-31T18:20:30.094Z,15.49
2022-12-31T18:23:01.616Z,15.34
2022-12-31T18:28:19.414Z,15.45
2022-12-31T18:30:57.467Z,15.43
2022-12-31T18:33:39.798Z,15.43
2022-12-31T18:36:21.385Z,15.47
2022-12-31T18:38:58.419Z,15.45
2022-12-31T18:41:34.143Z,15.34
2022-12-31T18:44:38.619Z,15.49
2022-12-31T18:47:19.188Z,15.46
2022-12-31T18:49:57.608Z,15.12
2022-12-31T18:52:36.951Z,15.38
2022-12-31T18:55:30.580Z,15.30
2022-12-31T18:58:22.814Z,15.24
2022-12-31T19:00:58.393Z,15.13
2022-12-31T19:03:56.533Z,15.24
2022-12-31T19:06:54.742Z,15.41
2022-12-31T19:09:47.261Z,15.16
2022-12-31T19:13:23.462Z,15.39
2022-12-31T19:16:12.147Z,15.39
2022-12-31T19:18:44.066Z,15.16
2022-12-31T19:21:49.176Z,15.29
2022-12-31T19:24:28.074Z,15.18
2022-12-31T19:27:13.051Z,15.24
2022-12-31T19:29:57.325Z,15.13
2022-12-31T19:32:49.984Z,15.10
2022-12-31T19:35:27.434Z,15.14
2022-12-31T19:38:04.812Z,15.02
2022-12-31T19:40:54.545Z,15.10
2022-12-31T19:43:54.993Z,15.06
2022-12-31T19:47:09.663Z,15.04
2022-12-31T19:50:19.467Z,15.05
2022-12-31T20:02:15.253Z,15.04
2022-12-31T20:04:51.843Z,15.07
2022-12-31T20:07:39.670Z,15.08
2022-12-31T20:11:31.282Z,15.17
2022-12-31T20:14:45.057Z,15.08
2022-12-31T20:39:20.409Z,15.15
2022-12-31T20:42:41.640Z,15.09
2022-12-31T20:46:02.786Z,15.09
2022-12-31T20:49:16.219Z,15.10
2022-12-31T20:52:25.548Z,15.09
2022-12-31T20:56:03.625Z,15.10
2022-12-31T20:58:44.156Z,14.98
2022-12-31T21:02:11.139Z,15.15
2022-12-31T21:05:12.925Z,15.02
2022-12-31T21:07:54.043Z,14.92
2022-12-31T21:10:26.798Z,14.70
2022-12-31T21:12:55.728Z,14.69
2022-12-31T21:15:26.078Z,14.63
2022-12-31T21:17:54.806Z,14.59
2022-12-31T21:20:23.318Z,14.44
2022-12-31T21:22:51.789Z,14.52
2022-12-31T21:25:20.936Z,14.32
2022-12-31T21:27:49.425Z,14.13
2022-12-31T21:30:19.386Z,13.96
2022-12-31T21:32:49.386Z,13.94
2022-12-31T21:38:06.701Z,13.53
2022-12-31T21:40:35.010Z,13.48
2022-12-31T21:43:03.307Z,13.52
2022-12-31T21:45:32.471Z,13.50
2022-12-31T21:48:20.013Z,13.59
2022-12-31T21:50:49.143Z,13.62
2022-12-31T21:53:23.502Z,13.62
2022-12-31T21:56:12.792Z,13.58
2022-12-31T21:58:41.877Z,13.35
2022-12-31T22:01:29.308Z,13.66
2022-12-31T22:03:59.349Z,13.50
2022-12-31T22:06:27.869Z,13.58
2022-12-31T22:08:56.653Z,13.58
2022-12-31T22:11:25.913Z,13.50
2022-12-31T22:13:57.408Z,13.78
2022-12-31T22:16:29.708Z,13.82
2022-12-31T22:19:05.890Z,13.77
2022-12-31T22:21:42.712Z,13.81
2022-12-31T22:24:15.355Z,13.89
2022-12-31T22:26:46.975Z,13.76
2022-12-31T22:29:20.238Z,13.83
2022-12-31T22:31:54.513Z,13.80
2022-12-31T22:34:27.949Z,13.96
2022-12-31T22:37:08.900Z,13.91
2022-12-31T22:40:13.069Z,13.91
2022-12-31T22:42:44.732Z,13.93
2022-12-31T22:45:21.109Z,13.98
2022-12-31T22:47:59.933Z,14.01
2022-12-31T22:50:50.312Z,13.98
2022-12-31T22:53:21.711Z,13.92
2022-12-31T22:55:52.496Z,13.80
2022-12-31T22:58:38.639Z,13.91
2022-12-31T23:01:19.660Z,14.07
2022-12-31T23:04:14.000Z,14.07
2022-12-31T23:11:13.356Z,14.16
2022-12-31T23:14:29.366Z,14.17
2022-12-31T23:17:55.794Z,14.27
2022-12-31T23:21:36.525Z,14.34
2022-12-31T23:24:26.409Z,14.30
2022-12-31T23:30:38.224Z,14.40
2022-12-31T23:33:37.485Z,14.33
2022-12-31T23:36:51.181Z,14.39
2022-12-31T23:39:55.259Z,14.36
2022-12-31T23:43:04.504Z,14.42
2022-12-31T23:46:11.065Z,14.33
2022-12-31T23:49:13.737Z,14.46
2022-12-31T23:52:06.847Z,14.51
2022-12-31T23:55:19.770Z,14.52
2022-12-31T23:58:20.398Z,14.47
